Time;durP1;ratioP1;P1;durP2;ratioP2;P2;SDS_P1;SDS_P2;PMS_P1;PMS_P2;Temp;Humidity;BMP_temperature;BMP_pressure;BME280_temperature;BME280_humidity;BME280_pressure;Samples;Min_cycle;Max_cycle;Signal;HPM_P1;HPM_P2
2022/12/27 00:00:15;;;;;;;22.20;3.78;;;3.40;99.90;;;;;;5048706;28;20076;-57
2022/12/27 00:02:42;;;;;;;15.77;3.50;;;3.40;99.90;;;;;;5048396;28;20453;-56
2022/12/27 00:05:09;;;;;;;14.93;3.50;;;3.40;99.90;;;;;;5052569;28;20102;-59
2022/12/27 00:07:36;;;;;;;14.65;3.28;;;3.40;99.90;;;;;;5050752;28;20041;-62
2022/12/27 00:10:03;;;;;;;11.60;3.15;;;3.40;99.90;;;;;;5051280;28;20162;-58
2022/12/27 00:12:30;;;;;;;17.23;4.63;;;3.50;99.90;;;;;;5048903;28;20131;-56
2022/12/27 00:14:57;;;;;;;19.88;5.13;;;3.40;99.90;;;;;;5051372;28;20110;-60
2022/12/27 00:17:25;;;;;;;14.82;4.10;;;3.50;99.90;;;;;;5045394;28;20076;-61
2022/12/27 00:19:52;;;;;;;9.50;3.83;;;3.50;99.90;;;;;;5052347;28;20053;-59
2022/12/27 00:22:19;;;;;;;18.67;3.40;;;3.50;99.90;;;;;;5077369;28;20111;-57
2022/12/27 00:24:45;;;;;;;12.35;3.05;;;3.50;99.90;;;;;;5048157;28;20076;-59
2022/12/27 00:27:12;;;;;;;13.50;3.42;;;3.50;99.90;;;;;;5051472;28;20136;-61
2022/12/27 00:29:39;;;;;;;14.57;3.63;;;3.50;99.90;;;;;;5052866;28;20067;-59
2022/12/27 00:32:06;;;;;;;14.55;3.42;;;3.50;99.90;;;;;;5053962;28;20553;-61
2022/12/27 00:34:34;;;;;;;21.85;3.92;;;3.50;99.90;;;;;;5051845;28;20080;-54
2022/12/27 00:37:01;;;;;;;17.13;3.78;;;3.50;99.90;;;;;;5050441;28;20080;-62
2022/12/27 00:39:28;;;;;;;17.73;3.58;;;3.50;99.90;;;;;;5052407;28;20092;-62
2022/12/27 00:41:54;;;;;;;15.48;3.40;;;3.50;99.90;;;;;;5047101;28;20136;-50
2022/12/27 00:44:21;;;;;;;18.00;3.50;;;3.50;99.90;;;;;;5046297;28;20126;-61
2022/12/27 00:46:48;;;;;;;15.50;3.63;;;3.50;99.90;;;;;;5049165;28;20107;-62
2022/12/27 00:49:15;;;;;;;14.68;3.17;;;3.50;99.90;;;;;;5049160;28;20457;-62
2022/12/27 00:51:43;;;;;;;12.68;2.90;;;3.50;99.90;;;;;;5048786;28;20053;-51
2022/12/27 00:54:10;;;;;;;15.95;3.47;;;3.50;99.90;;;;;;5046870;28;20563;-62
2022/12/27 00:56:37;;;;;;;16.50;3.13;;;3.50;99.90;;;;;;5061443;28;20048;-61
2022/12/27 00:59:04;;;;;;;10.48;2.85;;;3.50;99.90;;;;;;5068911;28;20049;-58
2022/12/27 01:01:32;;;;;;;15.43;3.10;;;3.50;99.90;;;;;;5052472;28;20130;-56
2022/12/27 01:03:59;;;;;;;14.15;3.42;;;3.40;99.90;;;;;;5052187;28;20084;-59
2022/12/27 01:06:27;;;;;;;20.00;3.63;;;3.40;99.90;;;;;;5052638;28;20124;-60
2022/12/27 01:08:56;;;;;;;13.68;2.97;;;3.40;99.90;;;;;;5050927;28;20496;-63
2022/12/27 01:11:23;;;;;;;11.20;3.28;;;3.30;99.90;;;;;;5053680;28;20485;-60
2022/12/27 01:13:50;;;;;;;12.63;3.10;;;3.40;99.90;;;;;;5049267;28;20041;-57
2022/12/27 01:16:18;;;;;;;22.92;4.10;;;3.40;99.90;;;;;;5053433;28;20057;-57
2022/12/27 01:18:45;;;;;;;13.70;2.92;;;3.40;99.90;;;;;;5051331;28;20077;-62
2022/12/27 01:21:13;;;;;;;10.18;3.13;;;3.40;99.90;;;;;;5053739;28;20080;-62
2022/12/27 01:23:40;;;;;;;11.98;3.28;;;3.30;99.90;;;;;;5053285;28;20049;-62
2022/12/27 01:26:10;;;;;;;17.38;3.17;;;3.40;99.90;;;;;;5051955;28;20080;-59
2022/12/27 01:28:37;;;;;;;15.65;3.80;;;3.30;99.90;;;;;;5053436;28;20103;-58
2022/12/27 01:31:07;;;;;;;19.15;4.10;;;3.30;99.90;;;;;;5050757;28;20561;-60
2022/12/27 01:33:34;;;;;;;17.02;3.88;;;3.30;99.90;;;;;;5052253;28;20136;-60
2022/12/27 01:36:08;;;;;;;14.25;3.40;;;3.30;99.90;;;;;;5046539;28;20460;-61
2022/12/27 01:38:35;;;;;;;13.25;3.33;;;3.40;99.90;;;;;;5043422;28;20508;-58
2022/12/27 01:42:50;;;;;;;9.27;2.90;;;3.30;99.90;;;;;;5051574;28;20116;-51
2022/12/27 01:43:49;;;;;;;14.60;3.10;;;3.40;99.90;;;;;;5042805;28;20060;-61
2022/12/27 01:46:16;;;;;;;17.30;2.70;;;3.30;99.90;;;;;;5048680;28;20139;-61
2022/12/27 01:48:43;;;;;;;18.27;2.97;;;3.40;99.90;;;;;;5051907;28;20467;-63
2022/12/27 01:51:10;;;;;;;14.80;2.80;;;3.40;99.90;;;;;;5050294;28;20080;-61
2022/12/27 01:53:38;;;;;;;16.88;3.97;;;3.50;99.90;;;;;;5052471;28;20045;-62
2022/12/27 01:56:06;;;;;;;13.13;3.13;;;3.50;99.90;;;;;;5053244;28;20084;-62
2022/12/27 01:58:36;;;;;;;12.82;3.38;;;3.50;99.90;;;;;;5050801;28;20092;-59
2022/12/27 02:01:04;;;;;;;18.48;3.13;;;3.50;99.90;;;;;;5050046;28;20049;-60
2022/12/27 02:03:33;;;;;;;14.98;2.90;;;3.60;99.90;;;;;;5049465;28;20049;-55
2022/12/27 02:06:00;;;;;;;15.32;3.42;;;3.60;99.90;;;;;;5051635;28;20056;-60
2022/12/27 02:08:33;;;;;;;17.08;3.83;;;3.60;99.90;;;;;;5048871;28;20543;-55
2022/12/27 02:11:00;;;;;;;12.52;2.78;;;3.60;99.90;;;;;;5032426;28;20103;-60
2022/12/27 02:13:27;;;;;;;14.63;3.50;;;3.60;99.90;;;;;;5048393;28;20119;-56
2022/12/27 02:15:55;;;;;;;16.95;3.65;;;3.70;99.90;;;;;;5051226;28;20049;-59
2022/12/27 02:18:23;;;;;;;15.77;2.72;;;3.70;99.90;;;;;;5050027;28;20492;-58
2022/12/27 02:21:09;;;;;;;13.70;2.75;;;3.80;99.90;;;;;;5051961;28;20098;-59
2022/12/27 02:24:03;;;;;;;16.10;2.90;;;3.90;99.90;;;;;;5051784;28;20094;-58
2022/12/27 02:26:55;;;;;;;8.75;2.53;;;3.90;99.90;;;;;;5035599;28;20052;-46
2022/12/27 02:29:40;;;;;;;16.77;2.90;;;3.90;99.90;;;;;;5039931;28;20131;-58
2022/12/27 02:32:08;;;;;;;12.93;2.47;;;3.90;99.90;;;;;;5036941;28;20135;-60
2022/12/27 02:34:41;;;;;;;22.83;2.78;;;3.90;99.90;;;;;;5046442;28;20079;-59
2022/12/27 02:37:09;;;;;;;14.63;2.83;;;3.90;99.90;;;;;;5043650;28;20103;-61
2022/12/27 02:39:37;;;;;;;17.85;3.28;;;4.00;99.90;;;;;;5051247;28;20506;-61
2022/12/27 02:53:19;;;;;;;17.30;3.33;;;4.00;99.90;;;;;;5046268;28;20052;-61
2022/12/27 02:58:52;;;;;;;16.42;3.80;;;4.10;99.90;;;;;;5049204;28;20037;-63
2022/12/27 03:04:16;;;;;;;17.42;3.40;;;4.10;99.90;;;;;;5051241;28;20045;-61
2022/12/27 03:06:55;;;;;;;14.80;3.28;;;4.00;99.90;;;;;;5049037;28;20073;-46
2022/12/27 03:18:19;;;;;;;14.40;3.38;;;4.10;99.90;;;;;;5045311;28;20053;-57
2022/12/27 03:26:14;;;;;;;18.40;3.67;;;4.00;99.90;;;;;;5046080;28;20065;-61
2022/12/27 03:34:37;;;;;;;18.00;4.05;;;4.10;99.90;;;;;;5049047;28;20049;-63
2022/12/27 03:39:51;;;;;;;18.40;3.28;;;4.10;99.90;;;;;;5049120;28;20048;-59
2022/12/27 03:45:05;;;;;;;17.63;3.70;;;4.20;99.90;;;;;;5053516;28;20061;-62
2022/12/27 03:47:35;;;;;;;14.20;2.40;;;4.20;99.90;;;;;;5045323;28;20136;-56
2022/12/27 03:50:06;;;;;;;18.42;2.83;;;4.30;99.90;;;;;;5045079;28;20055;-60
2022/12/27 03:52:34;;;;;;;16.88;2.65;;;4.30;99.90;;;;;;5049500;28;20579;-59
2022/12/27 03:55:01;;;;;;;14.18;2.30;;;4.30;99.90;;;;;;5049839;28;20465;-55
2022/12/27 03:57:28;;;;;;;15.75;2.50;;;4.20;99.90;;;;;;5047245;28;20049;-59
2022/12/27 03:59:55;;;;;;;15.20;2.17;;;4.20;99.90;;;;;;5045858;28;20128;-64
2022/12/27 04:02:21;;;;;;;15.25;2.53;;;4.20;99.90;;;;;;5048138;28;20140;-60
2022/12/27 04:04:48;;;;;;;18.60;2.65;;;4.20;99.90;;;;;;5052267;28;20132;-62
2022/12/27 04:07:16;;;;;;;14.50;2.88;;;4.20;99.90;;;;;;5047753;28;20137;-56
2022/12/27 04:34:45;;;;;;;15.82;2.75;;;4.00;99.90;;;;;;5047906;28;20048;-55
2022/12/27 04:37:12;;;;;;;15.23;3.28;;;4.00;99.90;;;;;;5044465;28;20048;-56
2022/12/27 04:39:41;;;;;;;26.25;3.42;;;4.00;99.90;;;;;;5046917;28;20461;-59
2022/12/27 04:55:57;;;;;;;15.23;2.67;;;4.00;99.90;;;;;;5047492;28;20481;-59
2022/12/27 04:58:23;;;;;;;15.32;3.35;;;4.00;99.90;;;;;;5048555;28;20179;-51
2022/12/27 05:03:40;;;;;;;14.88;3.15;;;4.00;99.90;;;;;;5027030;28;20141;-63
2022/12/27 05:06:07;;;;;;;15.75;3.28;;;4.00;99.90;;;;;;5045705;28;20111;-61
2022/12/27 05:14:04;;;;;;;19.23;2.63;;;3.90;99.90;;;;;;5048012;28;20049;-63
2022/12/27 05:16:32;;;;;;;14.00;2.85;;;3.90;99.90;;;;;;5046961;28;20069;-59
2022/12/27 05:18:59;;;;;;;17.13;3.22;;;4.00;99.90;;;;;;5049044;28;20670;-56
2022/12/27 05:21:25;;;;;;;17.80;3.00;;;4.00;99.90;;;;;;5047691;28;20114;-63
2022/12/27 05:26:38;;;;;;;11.20;2.78;;;4.00;99.90;;;;;;5048101;28;20144;-62
2022/12/27 05:29:05;;;;;;;13.68;2.67;;;4.00;99.90;;;;;;5047408;28;20056;-54
2022/12/27 05:31:32;;;;;;;16.60;3.15;;;4.00;99.90;;;;;;5044928;28;20095;-62
2022/12/27 05:33:59;;;;;;;16.20;3.22;;;4.00;99.90;;;;;;5048375;28;20087;-65
2022/12/27 05:36:26;;;;;;;19.55;3.33;;;4.00;99.90;;;;;;5048434;28;20120;-63
2022/12/27 05:38:53;;;;;;;15.02;2.70;;;4.10;99.90;;;;;;5049914;28;20442;-48
2022/12/27 05:41:20;;;;;;;15.82;2.80;;;4.00;99.90;;;;;;5049062;28;20076;-54
2022/12/27 05:43:48;;;;;;;15.95;3.10;;;4.00;99.90;;;;;;5044622;28;20168;-62
2022/12/27 05:46:15;;;;;;;22.30;3.58;;;4.00;99.90;;;;;;5046699;28;20124;-60
2022/12/27 05:48:42;;;;;;;16.52;2.72;;;4.00;99.90;;;;;;5042938;28;20045;-61
2022/12/27 05:51:10;;;;;;;14.25;2.55;;;4.00;99.90;;;;;;5044156;28;20102;-54
2022/12/27 05:53:37;;;;;;;16.85;3.00;;;3.90;99.90;;;;;;5046967;28;20550;-52
2022/12/27 05:56:04;;;;;;;20.27;3.38;;;3.90;99.90;;;;;;5046610;28;20057;-55
2022/12/27 05:58:31;;;;;;;21.05;3.00;;;4.00;99.90;;;;;;5044747;28;20045;-64
2022/12/27 06:01:00;;;;;;;15.65;3.10;;;4.00;99.90;;;;;;5047224;28;20139;-61
2022/12/27 06:03:27;;;;;;;19.00;2.88;;;4.20;99.90;;;;;;5048434;28;20129;-61
2022/12/27 06:05:59;;;;;;;18.98;2.92;;;4.10;99.90;;;;;;5047008;28;20129;-56
2022/12/27 06:08:26;;;;;;;13.63;2.47;;;4.10;99.90;;;;;;5044700;28;20552;-62
2022/12/27 06:11:01;;;;;;;15.43;2.65;;;4.10;99.90;;;;;;5047344;28;20117;-61
2022/12/27 06:13:28;;;;;;;19.85;3.22;;;4.10;99.90;;;;;;5047869;28;20080;-62
2022/12/27 06:15:55;;;;;;;20.95;2.47;;;4.20;99.90;;;;;;5046891;28;20455;-61
2022/12/27 06:18:23;;;;;;;15.25;2.83;;;4.20;99.90;;;;;;5045848;28;20049;-56
2022/12/27 06:20:50;;;;;;;17.38;2.90;;;4.20;99.90;;;;;;5044359;28;20124;-62
2022/12/27 06:23:16;;;;;;;15.00;2.40;;;4.20;99.90;;;;;;5045818;28;20580;-56
2022/12/27 06:25:43;;;;;;;16.92;2.95;;;4.20;99.90;;;;;;5044201;28;20136;-60
2022/12/27 06:28:10;;;;;;;12.88;2.70;;;4.20;99.90;;;;;;5046339;28;20037;-57
2022/12/27 06:30:37;;;;;;;16.80;3.30;;;4.20;99.90;;;;;;5044919;28;20135;-62
2022/12/27 06:33:04;;;;;;;21.30;2.80;;;4.20;99.90;;;;;;5045036;28;20080;-60
2022/12/27 06:35:32;;;;;;;12.68;2.40;;;4.20;99.90;;;;;;5047022;28;20114;-61
2022/12/27 06:37:59;;;;;;;19.85;3.15;;;4.20;99.90;;;;;;5046731;28;20084;-62
2022/12/27 06:40:25;;;;;;;16.65;3.47;;;4.10;99.90;;;;;;5065080;28;20084;-63
2022/12/27 06:42:52;;;;;;;15.70;2.80;;;4.10;99.90;;;;;;5046004;28;20467;-63
2022/12/27 06:45:19;;;;;;;11.10;2.30;;;4.10;99.90;;;;;;5048217;28;20065;-60
2022/12/27 06:47:46;;;;;;;10.32;1.90;;;4.10;99.90;;;;;;5045719;28;20041;-54
2022/12/27 06:50:13;;;;;;;22.20;3.13;;;4.00;99.90;;;;;;5045677;28;20049;-61
2022/12/27 06:52:41;;;;;;;15.65;3.20;;;4.00;99.90;;;;;;5044977;28;20044;-64
2022/12/27 06:55:08;;;;;;;16.40;3.15;;;4.00;99.90;;;;;;5044362;28;20581;-56
2022/12/27 06:57:35;;;;;;;16.63;3.13;;;4.00;99.90;;;;;;5045186;28;20144;-55
2022/12/27 07:00:02;;;;;;;17.33;4.25;;;3.90;99.90;;;;;;5044765;28;20081;-61
2022/12/27 07:02:29;;;;;;;23.50;3.42;;;3.90;99.90;;;;;;5048800;28;20071;-61
2022/12/27 07:04:56;;;;;;;19.60;3.33;;;3.90;99.90;;;;;;5045630;28;20099;-60
2022/12/27 07:07:22;;;;;;;18.25;3.35;;;3.90;99.90;;;;;;5047376;28;20107;-59
2022/12/27 07:09:50;;;;;;;14.88;3.13;;;3.90;99.90;;;;;;5047226;28;20460;-62
2022/12/27 07:12:17;;;;;;;23.95;3.30;;;3.80;99.90;;;;;;5051067;28;20091;-60
2022/12/27 07:14:44;;;;;;;20.80;3.60;;;3.90;99.90;;;;;;5050471;28;20118;-63
2022/12/27 07:17:11;;;;;;;18.48;3.28;;;3.80;99.90;;;;;;5051678;28;20077;-58
2022/12/27 07:19:39;;;;;;;13.63;4.38;;;3.80;99.90;;;;;;5050940;28;20077;-62
2022/12/27 07:22:05;;;;;;;18.25;3.55;;;3.80;99.90;;;;;;5049976;28;20053;-50
2022/12/27 07:24:32;;;;;;;23.10;3.50;;;3.70;99.90;;;;;;5048845;28;20049;-63
2022/12/27 07:27:01;;;;;;;21.02;4.32;;;3.70;99.90;;;;;;5050952;28;20052;-52
2022/12/27 07:29:28;;;;;;;24.05;3.60;;;3.70;99.90;;;;;;5049492;28;20045;-63
2022/12/27 07:31:54;;;;;;;17.90;4.10;;;3.70;99.90;;;;;;5051203;28;20084;-55
2022/12/27 07:34:21;;;;;;;17.52;3.40;;;3.80;99.90;;;;;;5050138;28;20084;-62
2022/12/27 07:36:48;;;;;;;15.43;3.70;;;3.70;99.90;;;;;;5046231;28;20060;-63
2022/12/27 07:39:15;;;;;;;16.73;3.53;;;3.70;99.90;;;;;;5048280;28;20049;-58
2022/12/27 07:41:42;;;;;;;16.25;2.90;;;3.70;99.90;;;;;;5047964;28;20053;-62
2022/12/27 07:44:10;;;;;;;22.80;3.50;;;3.70;99.90;;;;;;5055023;28;20144;-64
2022/12/27 07:46:38;;;;;;;15.75;3.85;;;3.70;99.90;;;;;;5051729;28;20095;-63
2022/12/27 07:49:06;;;;;;;20.13;3.50;;;3.70;99.90;;;;;;5054356;28;20528;-53
2022/12/27 07:51:33;;;;;;;22.52;3.90;;;3.70;99.90;;;;;;5047790;28;20049;-65
2022/12/27 07:54:00;;;;;;;15.77;3.08;;;3.70;99.90;;;;;;5048559;28;20485;-64
2022/12/27 07:56:27;;;;;;;14.60;3.17;;;3.80;99.90;;;;;;5050669;28;20102;-67
2022/12/27 07:58:54;;;;;;;17.38;2.95;;;3.70;99.90;;;;;;5051202;28;20061;-63
2022/12/27 08:01:23;;;;;;;17.27;3.03;;;3.80;99.90;;;;;;5053162;28;20083;-60
2022/12/27 08:03:50;;;;;;;19.38;4.03;;;3.70;99.90;;;;;;5043591;28;20056;-54
2022/12/27 08:06:20;;;;;;;18.90;3.40;;;3.70;99.90;;;;;;5049473;28;20073;-55
2022/12/27 08:08:47;;;;;;;12.30;3.20;;;3.80;99.90;;;;;;5047937;28;20546;-55
2022/12/27 08:11:14;;;;;;;18.65;3.30;;;3.70;99.90;;;;;;5048945;28;20057;-56
2022/12/27 08:13:41;;;;;;;13.13;2.83;;;3.70;99.90;;;;;;5046332;28;20487;-53
2022/12/27 08:16:09;;;;;;;13.43;3.20;;;3.70;99.90;;;;;;5049225;28;20072;-63
2022/12/27 08:18:37;;;;;;;17.85;3.50;;;3.60;99.90;;;;;;5051507;28;20045;-62
2022/12/27 08:21:04;;;;;;;20.27;3.88;;;3.70;99.90;;;;;;5054180;28;20110;-61
2022/12/27 08:23:32;;;;;;;20.67;3.83;;;3.70;99.90;;;;;;5050437;28;20056;-63
2022/12/27 08:25:59;;;;;;;14.80;2.88;;;3.80;99.90;;;;;;5048413;28;20052;-60
2022/12/27 08:28:27;;;;;;;19.73;3.63;;;3.80;99.90;;;;;;5048309;28;20041;-63
2022/12/27 08:30:54;;;;;;;20.23;3.63;;;3.70;99.90;;;;;;5048029;28;20520;-49
2022/12/27 08:33:20;;;;;;;21.40;3.67;;;3.80;99.90;;;;;;5048003;28;20148;-63
2022/12/27 08:35:48;;;;;;;16.27;3.65;;;3.80;99.90;;;;;;5048381;28;20091;-59
2022/12/27 08:38:15;;;;;;;18.27;3.55;;;3.90;99.90;;;;;;5051448;28;20165;-64
2022/12/27 08:40:43;;;;;;;15.63;3.50;;;3.80;99.90;;;;;;5051122;28;20071;-63
2022/12/27 08:43:09;;;;;;;25.50;4.00;;;3.90;99.90;;;;;;5062187;28;20099;-61
2022/12/27 08:45:36;;;;;;;17.30;4.10;;;3.90;99.90;;;;;;5051517;28;20052;-61
2022/12/27 08:48:03;;;;;;;21.55;3.80;;;4.00;99.90;;;;;;5048108;28;20273;-62
2022/12/27 08:50:30;;;;;;;17.40;3.70;;;3.90;99.90;;;;;;5047393;28;20049;-60
2022/12/27 08:52:59;;;;;;;23.25;4.47;;;3.90;99.90;;;;;;5051214;28;20088;-62
2022/12/27 08:55:26;;;;;;;19.13;3.72;;;3.90;99.90;;;;;;5046742;28;20081;-63
2022/12/27 08:57:56;;;;;;;17.48;3.50;;;3.90;99.90;;;;;;5050747;28;20514;-62
2022/12/27 09:00:23;;;;;;;25.63;4.47;;;4.00;99.90;;;;;;5049338;28;20064;-62
2022/12/27 09:02:50;;;;;;;23.67;4.18;;;3.90;99.90;;;;;;5049865;28;20499;-56
2022/12/27 09:05:18;;;;;;;23.52;4.38;;;4.00;99.90;;;;;;5051690;28;20098;-59
2022/12/27 09:07:45;;;;;;;20.30;3.95;;;4.00;99.90;;;;;;5051917;28;20413;-63
2022/12/27 09:10:13;;;;;;;19.40;4.68;;;4.00;99.90;;;;;;5054505;28;20469;-61
2022/12/27 09:12:40;;;;;;;21.73;5.10;;;4.00;99.90;;;;;;5052221;28;20111;-63
2022/12/27 09:15:08;;;;;;;18.88;4.25;;;4.00;99.90;;;;;;5053113;28;20474;-61
2022/12/27 09:17:35;;;;;;;24.05;4.72;;;4.00;99.90;;;;;;5050344;28;20072;-51
2022/12/27 09:20:02;;;;;;;15.20;4.22;;;4.00;99.90;;;;;;5052353;28;20136;-58
2022/12/27 09:22:29;;;;;;;20.27;4.40;;;4.10;99.90;;;;;;5052794;28;20045;-62
2022/12/27 09:24:55;;;;;;;22.35;3.83;;;4.10;99.90;;;;;;5054324;28;20099;-62
2022/12/27 09:27:24;;;;;;;14.98;4.05;;;4.20;99.90;;;;;;5052930;28;20053;-62
2022/12/27 09:29:50;;;;;;;14.60;4.72;;;4.20;99.90;;;;;;5053127;28;20119;-59
2022/12/27 09:32:17;;;;;;;19.02;3.95;;;4.30;99.90;;;;;;5053270;28;20115;-61
2022/12/27 09:34:44;;;;;;;19.90;4.28;;;4.30;99.90;;;;;;5050961;28;20084;-62
2022/12/27 09:37:11;;;;;;;14.95;3.72;;;4.30;99.90;;;;;;5046377;28;20556;-62
2022/12/27 09:39:38;;;;;;;28.52;4.38;;;4.40;99.90;;;;;;5047707;28;20106;-61
2022/12/27 09:42:10;;;;;;;24.85;4.15;;;4.50;99.90;;;;;;5044045;28;20570;-56
2022/12/27 09:44:44;;;;;;;18.40;4.00;;;4.50;99.90;;;;;;5045650;28;20048;-60
2022/12/27 09:47:12;;;;;;;20.52;4.45;;;4.60;99.90;;;;;;5052708;28;20095;-60
2022/12/27 09:49:41;;;;;;;24.70;4.20;;;4.70;99.90;;;;;;5043403;28;20057;-54
2022/12/27 09:52:11;;;;;;;20.02;4.70;;;4.80;99.90;;;;;;5045961;28;20087;-60
2022/12/27 09:54:40;;;;;;;19.88;4.30;;;4.80;99.90;;;;;;5050268;28;20049;-61
2022/12/27 09:57:10;;;;;;;18.38;4.15;;;4.90;99.90;;;;;;5048365;28;20452;-60
2022/12/27 09:59:38;;;;;;;25.27;4.55;;;4.90;99.90;;;;;;5045143;28;20069;-61
2022/12/27 10:02:09;;;;;;;18.77;3.58;;;4.90;99.90;;;;;;5049958;28;20139;-61
2022/12/27 10:04:36;;;;;;;22.48;4.22;;;5.00;99.90;;;;;;5050801;28;20053;-59
2022/12/27 10:07:09;;;;;;;24.13;3.95;;;5.00;99.90;;;;;;5055033;28;20457;-54
2022/12/27 10:09:56;;;;;;;25.17;3.65;;;5.00;99.90;;;;;;5048529;28;20080;-58
2022/12/27 10:13:05;;;;;;;17.85;3.75;;;5.00;99.90;;;;;;5050599;28;20064;-56
2022/12/27 10:15:34;;;;;;;18.58;4.03;;;5.00;99.90;;;;;;5012215;28;20556;-56
2022/12/27 10:18:10;;;;;;;26.05;4.25;;;5.10;99.90;;;;;;5052438;28;20155;-60
2022/12/27 10:20:47;;;;;;;15.48;3.47;;;5.20;99.90;;;;;;5049870;28;20140;-59
2022/12/27 10:23:15;;;;;;;16.63;3.55;;;5.20;99.90;;;;;;5041904;28;20065;-61
2022/12/27 10:25:42;;;;;;;20.60;4.85;;;5.20;99.90;;;;;;5048028;28;20198;-54
2022/12/27 10:28:12;;;;;;;16.65;4.55;;;5.30;99.90;;;;;;5047594;28;20580;-59
2022/12/27 10:30:39;;;;;;;15.27;4.70;;;5.30;99.90;;;;;;5045897;28;20096;-59
2022/12/27 10:33:09;;;;;;;18.50;4.65;;;5.40;99.90;;;;;;5051425;28;20484;-62
2022/12/27 10:35:35;;;;;;;24.85;8.02;;;5.50;99.90;;;;;;5049273;28;20084;-61
2022/12/27 10:38:06;;;;;;;14.70;4.43;;;5.50;99.90;;;;;;5051170;28;20119;-60
2022/12/27 10:40:35;;;;;;;22.05;4.00;;;5.60;99.90;;;;;;5051384;28;20110;-60
2022/12/27 10:43:03;;;;;;;16.00;3.72;;;5.70;99.90;;;;;;5048873;28;20091;-57
2022/12/27 10:45:32;;;;;;;17.80;3.80;;;5.80;99.90;;;;;;5047061;28;20118;-63
2022/12/27 10:48:12;;;;;;;18.35;3.95;;;5.80;99.90;;;;;;5051033;28;20057;-57
2022/12/27 10:50:39;;;;;;;19.63;3.50;;;5.90;99.90;;;;;;5044432;28;20123;-65
2022/12/27 10:53:05;;;;;;;18.88;3.50;;;6.10;99.90;;;;;;5047332;28;20080;-64
2022/12/27 10:55:36;;;;;;;18.58;3.65;;;6.20;99.90;;;;;;5046464;28;20111;-59
2022/12/27 10:58:28;;;;;;;13.23;2.80;;;6.20;99.90;;;;;;5043694;28;20053;-61
2022/12/27 11:00:55;;;;;;;;;;;6.30;99.90;;;;;;5044878;28;20077;-64
2022/12/27 11:03:25;;;;;;;14.27;3.22;;;6.30;99.90;;;;;;5043696;28;20011;-61
2022/12/27 11:05:59;;;;;;;13.93;3.35;;;6.40;99.90;;;;;;5052862;28;20056;-63
2022/12/27 11:08:26;;;;;;;18.58;3.42;;;6.40;99.90;;;;;;5048951;28;20076;-58
2022/12/27 11:11:11;;;;;;;18.50;2.85;;;6.50;99.90;;;;;;5048174;28;20075;-59
2022/12/27 11:13:37;;;;;;;12.80;2.80;;;6.50;99.90;;;;;;5045598;28;20076;-64
2022/12/27 11:16:05;;;;;;;13.60;3.42;;;6.50;99.90;;;;;;5032764;28;20054;-61
2022/12/27 11:18:34;;;;;;;22.80;3.22;;;6.50;99.90;;;;;;5037526;28;20472;-67
2022/12/27 11:21:01;;;;;;;18.58;3.28;;;6.50;99.90;;;;;;5050755;28;20057;-66
2022/12/27 11:23:29;;;;;;;19.08;3.40;;;6.60;99.90;;;;;;5050039;28;20385;-63
2022/12/27 11:25:56;;;;;;;15.48;3.00;;;6.70;99.90;;;;;;5055964;28;20049;-65
2022/12/27 11:28:28;;;;;;;17.38;2.67;;;6.70;99.90;;;;;;5051527;28;20049;-66
2022/12/27 11:30:56;;;;;;;13.57;3.10;;;6.80;99.90;;;;;;5053325;28;20103;-66
2022/12/27 11:33:24;;;;;;;13.48;2.53;;;6.80;99.90;;;;;;5051081;28;20135;-66
2022/12/27 11:35:53;;;;;;;21.63;3.25;;;6.80;99.90;;;;;;5055804;28;20060;-67
2022/12/27 11:38:23;;;;;;;17.60;2.90;;;6.80;99.90;;;;;;5040287;28;20578;-64
2022/12/27 11:40:55;;;;;;;22.40;3.33;;;6.90;99.90;;;;;;5038662;28;20064;-65
2022/12/27 11:43:26;;;;;;;;;;;7.00;99.90;;;;;;5053025;28;20076;-64
2022/12/27 11:45:53;;;;;;;19.93;3.07;;;7.00;99.90;;;;;;5054103;28;19940;-69
2022/12/27 11:48:23;;;;;;;15.63;3.00;;;7.00;99.90;;;;;;5056550;28;20337;-62
2022/12/27 11:51:19;;;;;;;15.73;3.22;;;7.00;99.90;;;;;;5054470;28;20045;-66
2022/12/27 11:54:10;;;;;;;16.73;3.03;;;7.00;99.90;;;;;;5048519;28;20083;-66
2022/12/27 11:56:37;;;;;;;20.48;3.38;;;7.10;99.90;;;;;;5045367;28;20473;-66
2022/12/27 11:59:23;;;;;;;14.98;2.80;;;7.00;99.90;;;;;;5057005;28;20102;-64
2022/12/27 12:02:31;;;;;;;22.15;3.47;;;7.00;99.90;;;;;;5054319;28;20103;-69
2022/12/27 12:05:17;;;;;;;20.13;3.40;;;6.90;99.90;;;;;;5017214;28;20396;-61
2022/12/27 12:07:57;;;;;;;15.75;2.70;;;6.90;99.90;;;;;;5056530;28;20505;-66
2022/12/27 12:10:30;;;;;;;18.02;3.63;;;6.80;99.90;;;;;;5050430;28;20052;-68
2022/12/27 12:13:08;;;;;;;16.25;3.00;;;6.80;99.90;;;;;;5053957;28;20056;-60
2022/12/27 12:15:57;;;;;;;10.93;3.15;;;6.80;99.90;;;;;;5053692;28;20530;-70
2022/12/27 12:18:46;;;;;;;18.55;3.33;;;6.80;99.90;;;;;;5044417;28;20084;-62
2022/12/27 12:21:24;;;;;;;19.42;3.85;;;6.80;99.90;;;;;;5053770;28;20571;-60
2022/12/27 12:24:19;;;;;;;13.85;4.00;;;6.90;99.90;;;;;;5049835;28;20404;-65
2022/12/27 12:26:50;;;;;;;24.10;4.07;;;6.90;99.90;;;;;;5050459;28;20053;-60
2022/12/27 12:29:39;;;;;;;12.10;3.65;;;7.00;99.90;;;;;;5052158;28;20108;-53
2022/12/27 12:32:35;;;;;;;17.63;4.07;;;7.00;99.90;;;;;;5050020;28;20052;-60
2022/12/27 12:35:30;;;;;;;16.13;4.30;;;7.00;99.90;;;;;;5050097;28;20056;-64
2022/12/27 12:38:03;;;;;;;18.30;4.20;;;7.00;99.90;;;;;;5033168;28;20468;-66
2022/12/27 12:40:46;;;;;;;18.10;3.90;;;7.00;99.90;;;;;;5049046;28;20056;-59
2022/12/27 12:43:21;;;;;;;16.70;4.20;;;6.90;99.90;;;;;;5045313;28;20077;-68
2022/12/27 12:45:52;;;;;;;19.15;4.40;;;6.90;99.90;;;;;;5050506;28;20068;-63
2022/12/27 12:48:40;;;;;;;;;;;6.90;99.90;;;;;;5054345;28;20053;-57
2022/12/27 12:51:33;;;;;;;18.40;4.32;;;6.90;99.90;;;;;;5050776;28;19943;-68
2022/12/27 12:54:12;;;;;;;15.27;3.75;;;6.90;99.90;;;;;;5059926;28;20059;-66
2022/12/27 12:57:02;;;;;;;18.63;4.28;;;6.80;99.90;;;;;;5055600;28;20404;-73
2022/12/27 12:59:39;;;;;;;19.75;3.55;;;6.90;99.90;;;;;;5056449;28;20056;-71
2022/12/27 13:02:18;;;;;;;16.88;3.45;;;6.90;99.90;;;;;;5056641;28;20115;-63
2022/12/27 13:05:02;;;;;;;18.08;3.30;;;6.80;99.90;;;;;;5053217;28;20392;-66
2022/12/27 13:07:40;;;;;;;18.48;3.53;;;6.90;99.90;;;;;;5058146;28;20102;-68
2022/12/27 13:10:24;;;;;;;15.10;3.95;;;6.90;99.90;;;;;;5044892;28;20136;-67
2022/12/27 13:12:55;;;;;;;17.50;4.15;;;6.90;99.90;;;;;;5051035;28;20111;-66
2022/12/27 13:15:28;;;;;;;11.38;3.72;;;7.00;99.90;;;;;;5053506;28;20045;-68
2022/12/27 13:18:01;;;;;;;20.42;4.40;;;7.00;99.90;;;;;;5054158;28;20489;-70
2022/12/27 13:20:45;;;;;;;14.95;3.90;;;7.00;99.90;;;;;;5043315;28;20094;-74
2022/12/27 13:23:16;;;;;;;17.90;4.28;;;7.00;99.90;;;;;;5058359;28;20049;-67
2022/12/27 13:25:47;;;;;;;21.25;4.82;;;7.00;99.90;;;;;;5059521;28;20052;-71
2022/12/27 13:28:25;;;;;;;19.05;4.50;;;7.00;99.90;;;;;;5056276;28;20045;-64
2022/12/27 13:30:55;;;;;;;21.85;5.20;;;7.00;99.90;;;;;;5057269;28;20083;-67
2022/12/27 13:33:25;;;;;;;17.75;4.50;;;7.00;99.90;;;;;;5055548;28;20080;-63
2022/12/27 13:36:03;;;;;;;18.05;5.00;;;7.00;99.90;;;;;;5055589;28;20053;-71
2022/12/27 13:38:43;;;;;;;21.17;6.93;;;7.00;99.90;;;;;;5052943;28;20075;-60
2022/12/27 13:41:23;;;;;;;18.27;6.63;;;7.00;99.90;;;;;;5052260;28;20072;-60
2022/12/27 13:44:02;;;;;;;24.38;6.78;;;6.90;99.90;;;;;;5057850;28;20195;-71
2022/12/27 13:46:56;;;;;;;24.23;9.07;;;7.10;99.90;;;;;;5056857;28;20053;-63
2022/12/27 13:49:51;;;;;;;21.10;7.22;;;7.00;99.90;;;;;;5045139;28;20067;-67
2022/12/27 13:52:31;;;;;;;14.82;7.50;;;7.00;99.90;;;;;;5039506;28;20121;-71
2022/12/27 13:55:03;;;;;;;20.33;8.30;;;7.00;99.90;;;;;;5055404;28;20071;-61
2022/12/27 13:57:51;;;;;;;20.98;8.65;;;6.90;99.90;;;;;;5038348;28;20083;-70
2022/12/27 14:00:20;;;;;;;26.90;9.98;;;6.90;99.90;;;;;;5044239;28;20053;-67
2022/12/27 14:03:17;;;;;;;21.23;10.05;;;6.90;99.90;;;;;;5058326;28;20070;-67
2022/12/27 14:06:11;;;;;;;24.08;10.35;;;6.80;99.90;;;;;;5050678;28;20071;-66
2022/12/27 14:08:55;;;;;;;25.55;11.50;;;6.80;99.90;;;;;;5054260;28;20053;-72
2022/12/27 14:11:31;;;;;;;27.40;11.52;;;6.70;99.90;;;;;;5054622;28;20068;-62
2022/12/27 14:13:58;;;;;;;27.63;11.68;;;6.70;99.90;;;;;;5056605;28;20063;-70
2022/12/27 14:16:32;;;;;;;21.55;12.25;;;6.70;99.90;;;;;;5057317;28;20045;-56
2022/12/27 14:19:23;;;;;;;29.77;13.57;;;6.70;99.90;;;;;;5056519;28;20128;-66
2022/12/27 14:22:05;;;;;;;27.67;13.80;;;6.70;99.90;;;;;;5055437;28;20094;-68
2022/12/27 14:24:51;;;;;;;26.50;13.73;;;6.70;99.90;;;;;;5056266;28;20049;-67
2022/12/27 14:27:41;;;;;;;27.10;13.07;;;6.60;99.90;;;;;;5056111;28;20049;-68
2022/12/27 14:30:40;;;;;;;28.17;16.08;;;6.60;99.90;;;;;;5051117;28;20045;-66
2022/12/27 14:33:40;;;;;;;30.98;13.43;;;6.60;99.90;;;;;;5031450;28;20486;-65
2022/12/27 14:36:46;;;;;;;32.13;13.95;;;6.50;99.90;;;;;;5051553;28;20166;-65
2022/12/27 14:39:39;;;;;;;22.55;12.82;;;6.50;99.90;;;;;;5050496;28;20092;-65
2022/12/27 14:42:33;;;;;;;24.98;14.45;;;6.50;99.90;;;;;;5038568;28;20045;-62